KORF/ORF METAR and TAF weather

Enter ICAO airport designator
Station Type Date Time Source
KORF METAR 2022/12/05 13:51 UTC NOAA

KORF 051351Z 04006KT 10SM CLR 09/03 A3027 RMK AO2 SLP248 T00890033


Station Type Date Time Source
KORF Decoded METAR 2022/12/05 13:51 UTC NOAA

NORFOLK INTERNATIONAL AIRPORT , VA, United States (KORF) 36-54N 076-12W 14M
Dec 05, 2022 - 08:51 AM EST / 2022.12.05 1351 UTC
Wind: from the NE (040 degrees) at 7 MPH (6 KT):0
Visibility: 10 mile(s):0
Sky conditions: clear
Temperature: 48.0 F (8.9 C)
Dew Point: 37.9 F (3.3 C)
Relative Humidity: 67%
Pressure (altimeter): 30.27 in. Hg (1025 hPa)
ob: KORF 051351Z 04006KT 10SM CLR 09/03 A3027 RMK AO2 SLP248 T00890033
cycle: 14

Station Type Date Time Source
KORF TAF 2022/12/05 12:24 UTC NOAA

TAF KORF 051123Z 0512/0612 06003KT P6SM SKC
FM051500 09008KT P6SM BKN250
FM060600 12003KT P6SM OVC060

Example: see airport list